createdAt,value
2023-01-13T00:01:38.558Z,80.02
2023-01-13T00:04:05.299Z,80.14
2023-01-13T00:06:31.999Z,79.88
2023-01-13T00:08:58.680Z,80.34
2023-01-13T00:11:26.477Z,80.28
2023-01-13T00:13:53.638Z,79.88
2023-01-13T00:16:22.230Z,79.99
2023-01-13T00:18:51.317Z,80.37
2023-01-13T00:21:20.643Z,80.45
2023-01-13T00:23:47.787Z,80.33
2023-01-13T00:26:30.638Z,80.47
2023-01-13T00:28:58.799Z,80.52
2023-01-13T00:31:26.097Z,80.59
2023-01-13T00:33:52.890Z,80.87
2023-01-13T00:36:20.820Z,80.90
2023-01-13T00:38:47.957Z,80.78
2023-01-13T00:41:26.452Z,80.43
2023-01-13T00:43:53.246Z,80.89
2023-01-13T00:46:21.622Z,80.89
2023-01-13T00:48:51.314Z,80.97
2023-01-13T00:51:22.748Z,80.47
2023-01-13T00:53:50.894Z,80.91
2023-01-13T00:56:39.142Z,81.14
2023-01-13T00:59:07.127Z,81.03
2023-01-13T01:01:33.947Z,81.26
2023-01-13T01:04:00.676Z,81.03
2023-01-13T01:06:28.165Z,80.88
2023-01-13T01:08:57.066Z,81.66
2023-01-13T01:11:27.511Z,81.42
2023-01-13T01:13:56.688Z,81.38
2023-01-13T01:16:25.586Z,81.58
2023-01-13T01:18:53.913Z,80.86
2023-01-13T01:21:21.987Z,81.31
2023-01-13T01:23:48.703Z,81.57
2023-01-13T01:26:17.841Z,81.36
2023-01-13T01:28:45.208Z,81.50
2023-01-13T01:31:21.570Z,81.49
2023-01-13T01:33:52.095Z,81.14
2023-01-13T01:36:24.042Z,81.24
2023-01-13T01:38:50.710Z,81.15
2023-01-13T01:41:20.090Z,81.49
2023-01-13T01:44:22.417Z,81.38
2023-01-13T01:46:49.129Z,81.81
2023-01-13T01:49:24.634Z,82.24
2023-01-13T01:51:59.060Z,82.29
2023-01-13T01:54:33.319Z,81.90
2023-01-13T01:57:00.247Z,81.75
2023-01-13T01:59:29.557Z,81.98
2023-01-13T02:01:56.404Z,82.00
2023-01-13T02:04:29.395Z,82.57
2023-01-13T02:06:57.083Z,82.32
2023-01-13T02:09:26.597Z,82.35
2023-01-13T02:12:11.642Z,82.23
2023-01-13T02:14:40.926Z,82.29
2023-01-13T02:17:51.577Z,82.54
2023-01-13T02:20:37.659Z,82.75
2023-01-13T02:23:47.895Z,82.57
2023-01-13T02:26:14.482Z,82.81
2023-01-13T02:29:30.779Z,83.13
2023-01-13T02:32:05.819Z,82.52
2023-01-13T02:34:43.454Z,82.70
2023-01-13T02:37:17.646Z,83.16
2023-01-13T02:40:07.504Z,82.94
2023-01-13T02:42:59.421Z,82.71
2023-01-13T02:45:30.379Z,83.39
2023-01-13T02:47:58.728Z,83.46
2023-01-13T02:50:32.684Z,83.34
2023-01-13T02:53:04.803Z,83.19
2023-01-13T02:55:37.704Z,83.77
2023-01-13T02:58:07.529Z,83.38
2023-01-13T03:00:36.775Z,83.62
2023-01-13T03:03:03.445Z,83.53
2023-01-13T03:05:33.189Z,83.66
2023-01-13T03:08:32.677Z,83.52
2023-01-13T03:11:06.204Z,83.94
2023-01-13T03:13:53.511Z,83.95
2023-01-13T03:16:52.588Z,83.67
2023-01-13T03:19:31.667Z,83.61
2023-01-13T03:22:03.941Z,83.57
2023-01-13T03:24:49.435Z,83.64
2023-01-13T03:27:25.049Z,83.95
2023-01-13T03:30:17.556Z,83.83
2023-01-13T03:32:49.319Z,84.02
2023-01-13T03:35:23.601Z,84.15
2023-01-13T03:37:58.023Z,83.47
2023-01-13T03:40:31.703Z,83.43
2023-01-13T03:43:29.579Z,83.58
2023-01-13T03:46:06.518Z,83.36
2023-01-13T03:48:36.425Z,83.71
2023-01-13T03:51:07.737Z,84.14
2023-01-13T03:53:43.514Z,83.52
2023-01-13T03:56:22.753Z,83.21
2023-01-13T03:58:53.136Z,83.24
2023-01-13T04:01:27.526Z,83.26
2023-01-13T04:03:59.862Z,83.57
2023-01-13T04:06:40.373Z,83.33
2023-01-13T04:09:46.142Z,82.99
2023-01-13T04:12:58.740Z,83.50
2023-01-13T04:15:28.189Z,83.41
2023-01-13T04:18:01.755Z,83.03
2023-01-13T04:20:28.548Z,83.36
2023-01-13T04:22:55.090Z,83.08
2023-01-13T04:25:21.721Z,82.90
2023-01-13T04:27:48.305Z,82.64
2023-01-13T04:30:15.055Z,82.45
2023-01-13T04:32:41.706Z,82.33
2023-01-13T04:35:34.156Z,82.43
2023-01-13T04:38:05.960Z,82.44
2023-01-13T04:40:32.580Z,82.50
2023-01-13T04:42:59.167Z,82.39
2023-01-13T04:45:26.772Z,82.07
2023-01-13T04:47:53.429Z,81.99
2023-01-13T04:50:20.194Z,82.09
2023-01-13T04:52:49.275Z,82.24
2023-01-13T04:55:16.917Z,81.69
2023-01-13T04:57:43.565Z,81.65
2023-01-13T05:00:12.543Z,81.33
2023-01-13T05:02:39.615Z,81.43
2023-01-13T05:05:07.276Z,81.65
2023-01-13T05:07:37.041Z,81.38
2023-01-13T05:10:04.002Z,81.40
2023-01-13T05:12:49.897Z,81.47
2023-01-13T05:15:35.153Z,81.12
2023-01-13T05:18:02.494Z,81.32
2023-01-13T05:20:29.091Z,80.93
2023-01-13T05:23:14.196Z,80.99
2023-01-13T05:25:44.595Z,80.80
2023-01-13T05:28:11.803Z,81.42
2023-01-13T05:30:43.569Z,80.89
2023-01-13T05:33:11.456Z,81.08
2023-01-13T05:35:43.004Z,80.69
2023-01-13T05:38:10.707Z,80.98
2023-01-13T05:40:59.769Z,80.43
2023-01-13T05:43:27.127Z,80.39
2023-01-13T05:45:59.539Z,80.44
2023-01-13T05:48:38.062Z,80.08
2023-01-13T05:51:10.238Z,80.25
2023-01-13T05:53:37.273Z,80.38
2023-01-13T05:56:06.987Z,80.00
2023-01-13T05:58:34.547Z,80.42
2023-01-13T06:01:03.195Z,80.43
2023-01-13T06:03:30.598Z,80.12
2023-01-13T06:05:59.532Z,80.41
2023-01-13T06:08:26.669Z,79.79
2023-01-13T06:10:53.936Z,79.59
2023-01-13T06:13:20.667Z,79.88
2023-01-13T06:15:47.365Z,79.88
2023-01-13T06:18:14.799Z,79.11
2023-01-13T06:20:41.397Z,79.95
2023-01-13T06:23:11.802Z,79.80
2023-01-13T06:25:47.727Z,79.56
2023-01-13T06:28:14.332Z,79.43
2023-01-13T06:30:48.977Z,79.24
2023-01-13T06:33:20.148Z,79.42
2023-01-13T06:35:54.368Z,79.45
2023-01-13T06:38:23.184Z,79.58
2023-01-13T06:40:50.160Z,79.05
2023-01-13T06:43:18.674Z,79.01
2023-01-13T06:45:54.552Z,78.60
2023-01-13T06:48:26.002Z,78.54
2023-01-13T06:50:54.069Z,77.84
2023-01-13T06:53:20.814Z,77.87
2023-01-13T06:55:48.007Z,78.49
2023-01-13T06:58:14.572Z,77.52
2023-01-13T07:00:41.681Z,77.73
2023-01-13T07:03:15.869Z,77.64
2023-01-13T07:05:44.231Z,77.63
2023-01-13T07:08:11.026Z,77.69
2023-01-13T07:10:39.035Z,77.37
2023-01-13T07:13:25.281Z,77.36
2023-01-13T07:16:04.115Z,77.94
2023-01-13T07:18:32.423Z,77.54
2023-01-13T07:21:03.489Z,77.18
2023-01-13T07:23:33.830Z,77.15
2023-01-13T07:26:00.808Z,77.57
2023-01-13T07:28:28.680Z,77.33
2023-01-13T07:30:59.105Z,77.20
2023-01-13T07:33:25.961Z,77.27
2023-01-13T07:35:57.930Z,76.75
2023-01-13T07:38:25.069Z,76.35
2023-01-13T07:40:51.761Z,76.93
2023-01-13T07:43:33.499Z,77.03
2023-01-13T07:46:02.408Z,76.89
2023-01-13T07:48:30.811Z,76.33
2023-01-13T07:51:01.809Z,76.33
2023-01-13T07:53:28.669Z,76.29
2023-01-13T07:55:57.137Z,75.89
2023-01-13T07:58:25.194Z,76.01
2023-01-13T08:00:52.321Z,75.87
2023-01-13T08:03:19.216Z,75.46
2023-01-13T08:05:46.069Z,75.24
2023-01-13T08:08:12.932Z,75.47
2023-01-13T08:10:39.504Z,75.38
2023-01-13T08:13:18.231Z,75.33
2023-01-13T08:15:45.272Z,75.17
2023-01-13T08:18:11.975Z,75.45
2023-01-13T08:20:39.138Z,75.59
2023-01-13T08:23:07.305Z,75.71
2023-01-13T08:25:34.208Z,75.49
2023-01-13T08:28:01.135Z,75.69
2023-01-13T08:30:28.344Z,75.70
2023-01-13T08:32:55.240Z,76.07
2023-01-13T08:35:23.027Z,75.65
2023-01-13T08:37:50.339Z,75.48
2023-01-13T08:40:18.272Z,75.66
2023-01-13T08:42:46.499Z,76.24
2023-01-13T08:45:15.058Z,75.61
2023-01-13T08:47:41.650Z,75.73
2023-01-13T08:50:09.040Z,75.67
2023-01-13T08:52:35.877Z,75.82
2023-01-13T08:55:02.730Z,75.67
2023-01-13T08:57:30.053Z,75.74
2023-01-13T08:59:56.731Z,75.49
2023-01-13T09:02:24.708Z,75.03
2023-01-13T09:04:52.342Z,75.00
2023-01-13T09:07:19.572Z,74.80
2023-01-13T09:09:46.235Z,75.07
2023-01-13T09:12:33.876Z,75.56
2023-01-13T09:15:01.101Z,74.78
2023-01-13T09:17:27.712Z,74.78
2023-01-13T09:19:55.074Z,74.84
2023-01-13T09:22:21.961Z,74.84
2023-01-13T09:24:48.547Z,74.83
2023-01-13T09:27:16.239Z,74.60
2023-01-13T09:29:43.353Z,74.65
2023-01-13T09:32:14.609Z,73.95
2023-01-13T09:35:01.216Z,74.52
2023-01-13T09:37:28.640Z,74.80
2023-01-13T09:39:55.774Z,74.66
2023-01-13T09:42:58.441Z,74.67
2023-01-13T09:45:32.366Z,74.89
2023-01-13T09:48:06.167Z,75.04
2023-01-13T09:50:48.471Z,75.45
2023-01-13T09:53:28.334Z,75.33
2023-01-13T09:55:55.124Z,75.29
2023-01-13T09:58:21.946Z,75.60
2023-01-13T10:01:27.441Z,75.23
2023-01-13T10:03:54.532Z,75.41
2023-01-13T10:06:30.494Z,75.43
2023-01-13T10:08:57.705Z,75.37
2023-01-13T10:11:44.540Z,75.56
2023-01-13T10:14:18.514Z,75.67
2023-01-13T10:17:05.056Z,76.03
2023-01-13T10:19:38.406Z,75.91
2023-01-13T10:22:12.637Z,76.33
2023-01-13T10:25:04.656Z,76.14
2023-01-13T10:27:39.650Z,76.51
2023-01-13T10:30:21.249Z,76.22
2023-01-13T10:32:58.085Z,76.57
2023-01-13T10:35:57.550Z,76.78
2023-01-13T10:38:38.950Z,76.76
2023-01-13T10:41:20.152Z,76.24
2023-01-13T10:43:52.734Z,76.25
2023-01-13T10:46:20.703Z,76.57
2023-01-13T10:48:59.375Z,76.43
2023-01-13T10:51:30.029Z,76.25
2023-01-13T10:54:14.281Z,76.66
2023-01-13T10:56:43.873Z,76.81
2023-01-13T10:59:16.087Z,76.82
2023-01-13T11:01:55.203Z,77.03
2023-01-13T11:04:53.804Z,76.98
2023-01-13T11:07:38.955Z,76.87
2023-01-13T11:10:27.380Z,76.94
2023-01-13T11:12:54.522Z,76.91
2023-01-13T11:15:24.588Z,77.13
2023-01-13T11:18:05.364Z,77.32
2023-01-13T11:20:38.984Z,76.66
2023-01-13T11:23:21.713Z,77.40
2023-01-13T11:25:54.701Z,77.02
2023-01-13T11:28:46.288Z,77.05
2023-01-13T11:31:31.096Z,77.63
2023-01-13T11:34:04.603Z,77.16
2023-01-13T11:36:40.300Z,77.41
2023-01-13T11:39:24.263Z,77.81
2023-01-13T11:42:18.070Z,77.49
2023-01-13T11:44:58.857Z,77.74
2023-01-13T11:47:29.780Z,77.32
2023-01-13T11:49:56.642Z,77.93
2023-01-13T11:52:59.213Z,77.65
2023-01-13T11:55:44.163Z,77.75
2023-01-13T11:58:50.702Z,78.19
2023-01-13T12:01:25.395Z,78.20
2023-01-13T12:04:15.867Z,78.17
2023-01-13T12:06:44.329Z,78.06
2023-01-13T12:09:19.294Z,78.55
2023-01-13T12:12:16.123Z,78.66
2023-01-13T12:14:58.276Z,78.55
2023-01-13T12:17:53.703Z,78.45
2023-01-13T12:20:45.053Z,78.60
2023-01-13T12:23:39.069Z,78.80
2023-01-13T12:26:10.479Z,78.89
2023-01-13T12:29:22.018Z,79.37
2023-01-13T12:31:51.960Z,79.14
2023-01-13T12:34:47.399Z,79.03
2023-01-13T12:37:37.484Z,79.29
2023-01-13T12:40:25.154Z,79.11
2023-01-13T12:43:30.502Z,79.22
2023-01-13T12:46:19.745Z,79.24
2023-01-13T12:48:59.397Z,79.63
2023-01-13T12:51:29.744Z,79.72
2023-01-13T12:53:56.691Z,79.88
2023-01-13T12:56:33.089Z,79.58
2023-01-13T12:59:21.736Z,79.85
2023-01-13T13:02:09.939Z,80.41
2023-01-13T13:04:44.908Z,80.16
2023-01-13T13:07:17.445Z,79.86
2023-01-13T13:09:51.763Z,80.17
2023-01-13T13:12:49.428Z,79.89
2023-01-13T13:15:28.343Z,80.10
2023-01-13T13:18:23.929Z,80.05
2023-01-13T13:21:04.970Z,79.67
2023-01-13T13:23:40.625Z,80.21
2023-01-13T13:26:16.401Z,79.96
2023-01-13T13:29:14.573Z,80.30
2023-01-13T13:32:04.790Z,79.94
2023-01-13T13:34:43.672Z,79.90
2023-01-13T13:37:17.224Z,80.10
2023-01-13T13:40:02.893Z,80.15
2023-01-13T13:43:01.271Z,79.89
2023-01-13T13:45:48.847Z,79.95
2023-01-13T13:48:19.609Z,80.10
2023-01-13T13:50:57.464Z,80.16
2023-01-13T13:53:27.175Z,80.18
2023-01-13T13:56:02.660Z,80.00
2023-01-13T13:58:34.045Z,80.21
2023-01-13T14:01:01.222Z,80.02
2023-01-13T14:03:34.470Z,80.23
2023-01-13T14:06:04.300Z,80.08
2023-01-13T14:08:34.379Z,80.20
2023-01-13T14:11:01.617Z,80.27
2023-01-13T14:13:30.596Z,80.24
2023-01-13T14:16:12.664Z,80.12
2023-01-13T14:18:47.669Z,80.30
2023-01-13T14:21:22.291Z,80.33
2023-01-13T14:24:10.764Z,80.35
2023-01-13T14:26:37.622Z,80.16
2023-01-13T14:29:04.786Z,80.33
2023-01-13T14:31:32.589Z,79.87
2023-01-13T14:34:03.039Z,80.05
2023-01-13T14:36:51.285Z,80.31
2023-01-13T14:39:17.953Z,80.35
2023-01-13T14:41:48.146Z,80.74
2023-01-13T14:44:29.656Z,80.32
2023-01-13T14:46:58.699Z,80.53
2023-01-13T14:49:37.029Z,80.44
2023-01-13T14:52:17.994Z,80.27
2023-01-13T14:54:53.552Z,79.95
2023-01-13T14:57:27.762Z,80.34
2023-01-13T15:00:13.712Z,80.17
2023-01-13T15:02:50.276Z,80.22
2023-01-13T15:05:20.759Z,80.05
2023-01-13T15:07:50.860Z,80.11
2023-01-13T15:10:18.976Z,80.17
2023-01-13T15:12:46.604Z,80.03
2023-01-13T15:15:37.999Z,79.79
2023-01-13T15:18:17.492Z,79.90
2023-01-13T15:20:46.635Z,79.95
2023-01-13T15:23:13.318Z,79.82
2023-01-13T15:25:42.574Z,79.64
2023-01-13T15:28:18.672Z,79.28
2023-01-13T15:30:45.689Z,79.74
2023-01-13T15:33:14.166Z,79.30
2023-01-13T15:35:47.001Z,79.38
2023-01-13T15:38:16.962Z,79.49
2023-01-13T15:40:43.870Z,79.45
2023-01-13T15:43:35.740Z,79.19
2023-01-13T15:46:24.668Z,79.60
2023-01-13T15:48:54.904Z,79.25
2023-01-13T15:51:22.171Z,79.39
2023-01-13T15:53:48.849Z,79.50
2023-01-13T15:56:36.755Z,79.46
2023-01-13T15:59:05.123Z,79.54
2023-01-13T16:01:31.758Z,79.37
2023-01-13T16:03:58.401Z,79.90
2023-01-13T16:06:32.580Z,79.23
2023-01-13T16:08:59.742Z,79.86
2023-01-13T16:11:26.362Z,79.39
2023-01-13T16:13:53.051Z,79.21
2023-01-13T16:16:22.740Z,79.74
2023-01-13T16:18:50.572Z,79.31
2023-01-13T16:21:20.448Z,80.07
2023-01-13T16:23:48.850Z,79.63
2023-01-13T16:26:22.941Z,79.43
2023-01-13T16:28:51.107Z,79.74
2023-01-13T16:31:24.478Z,79.73
2023-01-13T16:33:52.150Z,79.54
2023-01-13T16:36:20.318Z,80.02
2023-01-13T16:38:49.590Z,80.21
2023-01-13T16:41:16.596Z,80.03
2023-01-13T16:43:43.352Z,80.24
2023-01-13T16:46:27.316Z,80.37
2023-01-13T16:49:01.498Z,80.19
2023-01-13T16:51:29.196Z,80.20
2023-01-13T16:53:56.099Z,80.23
2023-01-13T16:56:25.967Z,80.17
2023-01-13T16:58:55.456Z,80.35
2023-01-13T17:01:26.122Z,80.19
2023-01-13T17:03:53.737Z,80.62
2023-01-13T17:06:24.968Z,80.30
2023-01-13T17:08:53.215Z,80.65
2023-01-13T17:11:21.063Z,80.60
2023-01-13T17:13:47.948Z,80.51
2023-01-13T17:16:20.954Z,80.73
2023-01-13T17:18:48.294Z,80.58
2023-01-13T17:21:16.186Z,80.58
2023-01-13T17:23:43.339Z,80.64
2023-01-13T17:26:28.299Z,81.07
2023-01-13T17:28:54.904Z,80.57
2023-01-13T17:31:21.554Z,80.59
2023-01-13T17:33:54.639Z,80.21
2023-01-13T17:36:21.295Z,80.02
2023-01-13T17:38:47.942Z,80.74
2023-01-13T17:41:14.835Z,80.33
2023-01-13T17:43:41.443Z,81.07
2023-01-13T17:46:12.457Z,80.44
2023-01-13T17:48:39.096Z,80.19
2023-01-13T17:51:12.023Z,80.55
2023-01-13T17:53:41.732Z,80.83
2023-01-13T17:56:09.767Z,80.61
2023-01-13T17:58:37.848Z,80.29
2023-01-13T18:01:14.032Z,80.36
2023-01-13T18:03:40.797Z,80.62
2023-01-13T18:06:11.303Z,80.13
2023-01-13T18:08:38.683Z,80.83
2023-01-13T18:11:05.391Z,81.02
2023-01-13T18:13:37.349Z,80.73
2023-01-13T18:16:15.006Z,80.59
2023-01-13T18:18:44.028Z,80.50
2023-01-13T18:21:45.763Z,80.34
2023-01-13T18:24:35.639Z,80.53
2023-01-13T18:27:21.287Z,80.81
2023-01-13T18:29:50.739Z,80.95
2023-01-13T18:32:18.199Z,80.88
2023-01-13T18:34:45.130Z,80.80
2023-01-13T18:37:13.475Z,81.12
2023-01-13T18:39:40.116Z,81.04
2023-01-13T18:42:26.970Z,80.72
2023-01-13T18:44:54.231Z,80.30
2023-01-13T18:47:20.865Z,80.99
2023-01-13T18:49:48.620Z,81.33
2023-01-13T18:52:15.294Z,81.36
2023-01-13T18:54:49.058Z,81.06
2023-01-13T18:57:16.109Z,80.68
2023-01-13T19:02:26.544Z,80.74
2023-01-13T19:04:53.906Z,81.08
2023-01-13T19:07:59.147Z,81.10
2023-01-13T19:10:58.303Z,81.21
2023-01-13T19:13:27.173Z,81.42
2023-01-13T19:15:56.647Z,81.22
2023-01-13T19:18:32.306Z,81.15
2023-01-13T19:21:11.361Z,81.51
2023-01-13T19:23:38.086Z,81.72
2023-01-13T19:26:08.609Z,81.12
2023-01-13T19:28:41.225Z,80.87
2023-01-13T19:31:15.615Z,80.96
2023-01-13T19:33:42.717Z,80.95
2023-01-13T19:36:13.446Z,81.21
2023-01-13T19:38:40.131Z,81.30
2023-01-13T19:41:32.971Z,80.93
2023-01-13T19:44:32.936Z,80.97
2023-01-13T19:46:59.651Z,81.17
2023-01-13T19:49:26.285Z,81.07
2023-01-13T19:51:53.275Z,81.41
2023-01-13T19:54:19.894Z,81.08
2023-01-13T19:56:46.441Z,80.79
2023-01-13T19:59:13.489Z,80.72
2023-01-13T20:01:41.272Z,80.75
2023-01-13T20:04:14.317Z,80.81
2023-01-13T20:06:41.232Z,80.69
2023-01-13T20:09:08.502Z,80.94
2023-01-13T20:11:36.407Z,80.95
2023-01-13T20:14:04.080Z,80.67
2023-01-13T20:16:39.351Z,81.08
2023-01-13T20:19:05.956Z,81.10
2023-01-13T20:21:32.541Z,80.98
2023-01-13T20:23:59.152Z,81.46
2023-01-13T20:26:25.764Z,81.22
2023-01-13T20:28:52.340Z,81.04
2023-01-13T20:31:19.046Z,81.50
2023-01-13T20:33:49.882Z,81.25
2023-01-13T20:36:28.351Z,81.10
2023-01-13T20:38:59.709Z,81.32
2023-01-13T20:41:45.927Z,81.49
2023-01-13T20:44:12.919Z,81.57
2023-01-13T20:46:43.532Z,81.14
2023-01-13T20:49:13.007Z,81.55
2023-01-13T20:51:39.976Z,81.83
2023-01-13T20:54:06.690Z,81.46
2023-01-13T20:56:33.470Z,81.43
2023-01-13T20:59:00.036Z,81.71
2023-01-13T21:01:28.004Z,81.80
2023-01-13T21:03:59.324Z,81.46
2023-01-13T21:06:27.078Z,82.05
2023-01-13T21:08:54.342Z,81.90
2023-01-13T21:11:41.302Z,81.84
2023-01-13T21:14:36.785Z,81.86
2023-01-13T21:17:04.852Z,82.30
2023-01-13T21:19:31.753Z,81.64
2023-01-13T21:21:58.492Z,81.90
2023-01-13T21:24:28.326Z,82.33
2023-01-13T21:27:01.703Z,82.39
2023-01-13T21:29:28.320Z,82.51
2023-01-13T21:32:02.630Z,82.31
2023-01-13T21:34:29.339Z,82.23
2023-01-13T21:36:55.898Z,82.17
2023-01-13T21:39:24.032Z,82.60
2023-01-13T21:42:08.889Z,82.25
2023-01-13T21:44:54.260Z,82.49
2023-01-13T21:47:39.954Z,82.58
2023-01-13T21:50:09.365Z,82.59
2023-01-13T21:52:42.702Z,82.45
2023-01-13T21:55:20.421Z,82.52
2023-01-13T21:57:48.563Z,82.43
2023-01-13T22:00:17.257Z,82.52
2023-01-13T22:02:44.558Z,82.69
2023-01-13T22:05:15.093Z,82.70
2023-01-13T22:07:42.387Z,82.53
2023-01-13T22:10:18.403Z,82.37
2023-01-13T22:12:45.183Z,82.49
2023-01-13T22:15:14.057Z,82.62
2023-01-13T22:17:42.420Z,82.52
2023-01-13T22:20:13.096Z,82.30
2023-01-13T22:22:39.771Z,82.47
2023-01-13T22:25:09.480Z,82.37
2023-01-13T22:27:43.389Z,82.50
2023-01-13T22:30:16.450Z,82.75
2023-01-13T22:32:43.172Z,82.68
2023-01-13T22:35:12.412Z,82.93
2023-01-13T22:37:39.452Z,82.45
2023-01-13T22:40:09.083Z,83.42
2023-01-13T22:42:44.773Z,83.16
2023-01-13T22:45:13.308Z,82.80
2023-01-13T22:47:40.082Z,83.44
2023-01-13T22:50:07.909Z,83.28
2023-01-13T22:52:35.588Z,83.07
2023-01-13T22:55:02.321Z,83.03
2023-01-13T22:57:36.459Z,83.21
2023-01-13T23:00:14.924Z,83.55
2023-01-13T23:02:41.815Z,83.22
2023-01-13T23:05:08.728Z,83.57
2023-01-13T23:07:35.718Z,83.25
2023-01-13T23:10:02.882Z,83.37
2023-01-13T23:12:29.437Z,83.32
2023-01-13T23:14:56.058Z,83.96
2023-01-13T23:17:22.667Z,83.53
2023-01-13T23:19:49.214Z,83.97
2023-01-13T23:22:15.773Z,83.34
2023-01-13T23:24:42.353Z,83.48
2023-01-13T23:27:08.956Z,84.03
2023-01-13T23:29:35.504Z,83.61
2023-01-13T23:32:02.177Z,84.02
2023-01-13T23:34:28.820Z,83.43
2023-01-13T23:36:55.409Z,83.50
2023-01-13T23:39:22.101Z,84.11
2023-01-13T23:41:48.732Z,84.16
2023-01-13T23:44:15.376Z,84.22
2023-01-13T23:46:42.552Z,84.49
2023-01-13T23:49:09.125Z,84.05
2023-01-13T23:51:36.521Z,84.11
2023-01-13T23:54:03.970Z,84.46
2023-01-13T23:56:31.698Z,84.07
2023-01-13T23:58:58.851Z,84.12
